Time;durP1;ratioP1;P1;durP2;ratioP2;P2;SDS_P1;SDS_P2;PMS_P1;PMS_P2;Temp;Humidity;BMP_temperature;BMP_pressure;BME280_temperature;BME280_humidity;BME280_pressure;Samples;Min_cycle;Max_cycle;Signal;HPM_P1;HPM_P2
2021/06/27 00:00:24;;;;;;;;;;;;;;;17.71;100.00;96010.75;1049338;28;19909;-73
2021/06/27 00:00:54;;;;;;;;;;;;;;;17.71;100.00;96010.75;1049273;28;19920;-73
2021/06/27 00:01:25;;;;;;;;;;;;;;;17.72;100.00;96012.34;1048901;28;20293;-73
2021/06/27 00:01:55;;;;;;;;;;;;;;;17.73;100.00;96010.47;1048918;28;19963;-73
2021/06/27 00:02:26;;;;;;;;;;;;;;;17.73;100.00;96007.78;1049023;28;19993;-73
2021/06/27 00:02:56;;;;;;;;;;;;;;;17.72;100.00;96008.84;1048894;28;19912;-73
2021/06/27 00:03:26;;;;;;;;;;;;;;;17.71;100.00;96015.34;1049307;28;20311;-73
2021/06/27 00:03:56;;;;;;;;;;;;;;;17.71;100.00;96012.66;1049197;28;20391;-73
2021/06/27 00:04:27;;;;;;;;;;;;;;;17.67;100.00;96018.69;1049272;28;19959;-73
2021/06/27 00:04:57;;;;;;;;;;;;;;;17.70;100.00;96019.16;1049231;28;19913;-73
2021/06/27 00:05:28;;;;;;;;;;;;;;;17.71;100.00;96026.16;1049132;28;19920;-73
2021/06/27 00:05:58;;;;;;;;;;;;;;;17.71;100.00;96023.44;1049297;28;20278;-73
2021/06/27 00:06:29;;;;;;;;;;;;;;;17.72;100.00;96017.75;1049288;28;19912;-73
2021/06/27 00:06:59;;;;;;;;;;;;;;;17.70;100.00;96019.16;1049290;28;19913;-73
2021/06/27 00:07:29;;;;;;;;;;;;;;;17.68;100.00;96020.28;1049234;28;20335;-73
2021/06/27 00:08:00;;;;;;;;;;;;;;;17.69;100.00;96023.78;1049200;28;19962;-73
2021/06/27 00:08:30;;;;;;;;;;;;;;;17.70;100.00;96032.69;1049337;28;19923;-73
2021/06/27 00:09:00;;;;;;;;;;;;;;;17.66;100.00;96027.13;1049302;28;19932;-73
2021/06/27 00:09:31;;;;;;;;;;;;;;;17.66;100.00;96030.63;1049156;28;19986;-73
2021/06/27 00:10:01;;;;;;;;;;;;;;;17.64;100.00;96022.00;1049217;28;19975;-73
2021/06/27 00:10:32;;;;;;;;;;;;;;;17.62;100.00;96018.03;1049296;28;20449;-73
2021/06/27 00:11:05;;;;;;;;;;;;;;;17.60;100.00;96021.03;1049228;28;19909;-73
2021/06/27 00:11:35;;;;;;;;;;;;;;;17.61;100.00;96021.88;1049148;28;19951;-73
2021/06/27 00:12:05;;;;;;;;;;;;;;;17.59;100.00;96016.75;1049183;28;19912;-73
2021/06/27 00:12:36;;;;;;;;;;;;;;;17.59;100.00;96018.66;1049150;28;19916;-73
2021/06/27 00:13:06;;;;;;;;;;;;;;;17.56;100.00;96016.59;1049226;28;19919;-73
2021/06/27 00:13:36;;;;;;;;;;;;;;;17.54;100.00;96014.19;1049093;28;19913;-73
2021/06/27 00:14:07;;;;;;;;;;;;;;;17.54;100.00;96010.69;1048780;28;19904;-73
2021/06/27 00:14:37;;;;;;;;;;;;;;;17.56;100.00;96016.59;1048921;28;20451;-73
2021/06/27 00:15:11;;;;;;;;;;;;;;;17.55;100.00;96015.78;1048915;28;19998;-73
2021/06/27 00:15:45;;;;;;;;;;;;;;;17.52;100.00;96016.44;1053392;28;20021;-73
2021/06/27 00:16:15;;;;;;;;;;;;;;;17.49;100.00;96017.03;1057250;28;20407;-73
2021/06/27 00:16:46;;;;;;;;;;;;;;;17.46;100.00;96014.19;1057294;28;19911;-73
2021/06/27 00:17:16;;;;;;;;;;;;;;;17.45;100.00;96016.06;1056177;28;20364;-73
2021/06/27 00:17:46;;;;;;;;;;;;;;;17.45;100.00;96007.97;1049086;28;19912;-73
2021/06/27 00:18:18;;;;;;;;;;;;;;;17.45;100.00;96013.38;1049174;28;19940;-73
2021/06/27 00:18:48;;;;;;;;;;;;;;;17.42;100.00;96019.41;1048963;28;19904;-73
2021/06/27 00:19:19;;;;;;;;;;;;;;;17.42;100.00;96012.09;1048846;28;19905;-73
2021/06/27 00:19:49;;;;;;;;;;;;;;;17.42;100.00;96009.41;1048861;28;19999;-73
2021/06/27 00:20:21;;;;;;;;;;;;;;;17.43;100.00;96015.59;1048811;28;20250;-73
2021/06/27 00:20:52;;;;;;;;;;;;;;;17.44;100.00;96011.00;1048852;28;19966;-73
2021/06/27 00:21:22;;;;;;;;;;;;;;;17.48;100.00;96020.06;1048904;28;19951;-73
2021/06/27 00:21:52;;;;;;;;;;;;;;;17.46;100.00;96016.91;1048834;28;19912;-73
2021/06/27 00:22:22;;;;;;;;;;;;;;;17.48;100.00;96014.66;1048810;28;20309;-73
2021/06/27 00:22:53;;;;;;;;;;;;;;;17.47;100.00;96021.19;1049189;28;19905;-73
2021/06/27 00:23:24;;;;;;;;;;;;;;;17.45;100.00;96018.78;1049282;28;19950;-74
2021/06/27 00:23:54;;;;;;;;;;;;;;;17.45;100.00;96016.06;1049114;28;19910;-73
2021/06/27 00:24:24;;;;;;;;;;;;;;;17.43;100.00;96012.91;1049190;28;20419;-74
2021/06/27 00:24:55;;;;;;;;;;;;;;;17.43;100.00;96018.31;1049178;28;19905;-73
2021/06/27 00:25:26;;;;;;;;;;;;;;;17.41;100.00;96015.91;1049175;28;19901;-73
2021/06/27 00:25:57;;;;;;;;;;;;;;;17.39;100.00;96007.31;1049190;28;20341;-73
2021/06/27 00:26:27;;;;;;;;;;;;;;;17.40;100.00;96014.34;1049221;28;19904;-73
2021/06/27 00:26:57;;;;;;;;;;;;;;;17.42;100.00;96016.72;1049186;28;19919;-73
2021/06/27 00:27:27;;;;;;;;;;;;;;;17.44;100.00;96022.59;1049220;28;19928;-73
2021/06/27 00:27:58;;;;;;;;;;;;;;;17.41;100.00;96021.31;1049127;28;19930;-72
2021/06/27 00:28:29;;;;;;;;;;;;;;;17.43;100.00;96015.59;1049210;28;19904;-73
2021/06/27 00:28:59;;;;;;;;;;;;;;;17.38;100.00;96013.84;1049219;28;19901;-74
2021/06/27 00:29:29;;;;;;;;;;;;;;;17.38;100.00;96021.94;1049136;28;19957;-73
2021/06/27 00:29:59;;;;;;;;;;;;;;;17.39;100.00;96011.94;1048797;28;19927;-73
2021/06/27 00:30:30;;;;;;;;;;;;;;;17.38;100.00;96018.44;1048860;28;19936;-73
2021/06/27 00:31:02;;;;;;;;;;;;;;;17.41;100.00;96009.72;1048878;28;19904;-73
2021/06/27 00:31:33;;;;;;;;;;;;;;;17.41;100.00;96023.22;1048977;28;19901;-73
2021/06/27 00:32:03;;;;;;;;;;;;;;;17.39;100.00;96014.63;1048823;28;19905;-73
2021/06/27 00:32:33;;;;;;;;;;;;;;;17.38;100.00;96015.75;1048855;28;20399;-73
2021/06/27 00:33:04;;;;;;;;;;;;;;;17.35;100.00;96016.34;1048688;28;19905;-73
2021/06/27 00:33:34;;;;;;;;;;;;;;;17.36;100.00;96018.75;1048846;28;20418;-73
2021/06/27 00:34:05;;;;;;;;;;;;;;;17.38;100.00;96013.84;1049136;28;20381;-73
2021/06/27 00:34:35;;;;;;;;;;;;;;;17.37;100.00;96020.34;1049080;28;19912;-73
2021/06/27 00:35:06;;;;;;;;;;;;;;;17.40;100.00;96018.91;1049172;28;19917;-73
2021/06/27 00:35:36;;;;;;;;;;;;;;;17.39;100.00;96014.63;1049241;28;19947;-73
2021/06/27 00:36:06;;;;;;;;;;;;;;;17.40;100.00;96013.50;1049240;28;19924;-73
2021/06/27 00:36:37;;;;;;;;;;;;;;;17.41;100.00;96013.22;1049135;28;19919;-73
2021/06/27 00:37:08;;;;;;;;;;;;;;;17.42;100.00;96019.41;1049141;28;19956;-73
2021/06/27 00:37:39;;;;;;;;;;;;;;;17.41;100.00;96012.44;1049195;28;19919;-73
2021/06/27 00:38:09;;;;;;;;;;;;;;;17.44;100.00;96009.09;1049246;28;19955;-74
2021/06/27 00:38:39;;;;;;;;;;;;;;;17.41;100.00;96009.72;1049114;28;19920;-73
2021/06/27 00:39:10;;;;;;;;;;;;;;;17.40;100.00;96008.09;1049197;28;19917;-73
2021/06/27 00:39:40;;;;;;;;;;;;;;;17.42;100.00;96008.59;1049148;28;19966;-73
2021/06/27 00:40:11;;;;;;;;;;;;;;;17.44;100.00;96005.59;1049110;28;19924;-73
2021/06/27 00:40:41;;;;;;;;;;;;;;;17.42;100.00;96014.00;1049008;28;19935;-73
2021/06/27 00:41:12;;;;;;;;;;;;;;;17.42;100.00;96012.09;1049111;28;19935;-73
2021/06/27 00:41:42;;;;;;;;;;;;;;;17.45;100.00;96009.88;1048861;28;19961;-73
2021/06/27 00:42:12;;;;;;;;;;;;;;;17.42;100.00;96011.31;1048782;28;20313;-73
2021/06/27 00:42:43;;;;;;;;;;;;;;;17.43;100.00;96007.50;1048759;28;19912;-73
2021/06/27 00:43:16;;;;;;;;;;;;;;;17.42;100.00;96008.59;1048856;28;19916;-73
2021/06/27 00:43:46;;;;;;;;;;;;;;;17.44;100.00;96006.38;1049138;28;19912;-73
2021/06/27 00:44:21;;;;;;;;;;;;;;;17.40;100.00;96002.69;1049035;28;20354;-73
2021/06/27 00:44:51;;;;;;;;;;;;;;;17.40;100.00;96002.69;1049006;28;20019;-74
2021/06/27 00:45:23;;;;;;;;;;;;;;;17.37;100.00;96006.84;1049002;28;19923;-73
2021/06/27 00:45:53;;;;;;;;;;;;;;;17.32;100.00;96006.97;1049143;28;19912;-73
2021/06/27 00:46:23;;;;;;;;;;;;;;;17.33;100.00;96008.56;1049025;28;20327;-73
2021/06/27 00:46:53;;;;;;;;;;;;;;;17.36;100.00;96009.88;1048991;28;20384;-73
2021/06/27 00:47:27;;;;;;;;;;;;;;;17.32;100.00;96006.97;1049022;28;20365;-74
2021/06/27 00:48:00;;;;;;;;;;;;;;;17.35;100.00;96006.38;1049115;28;19913;-73
2021/06/27 00:48:31;;;;;;;;;;;;;;;17.36;100.00;96007.16;1049156;28;20331;-73
2021/06/27 00:49:01;;;;;;;;;;;;;;;17.36;100.00;96005.25;1049008;28;19966;-73
2021/06/27 00:49:31;;;;;;;;;;;;;;;17.36;100.00;96007.97;1049171;28;19907;-72
2021/06/27 00:50:03;;;;;;;;;;;;;;;17.36;100.00;96007.97;1049072;28;19909;-72
2021/06/27 00:50:34;;;;;;;;;;;;;;;17.37;100.00;96004.16;1049094;28;19923;-72
2021/06/27 00:51:04;;;;;;;;;;;;;;;17.36;100.00;96007.97;1049050;28;19920;-73
2021/06/27 00:51:34;;;;;;;;;;;;;;;17.35;100.00;96003.66;1049191;28;20384;-72
2021/06/27 00:52:05;;;;;;;;;;;;;;;17.34;100.00;96007.47;1049115;28;19917;-73
2021/06/27 00:52:35;;;;;;;;;;;;;;;17.33;100.00;96005.88;1049086;28;19912;-73
2021/06/27 00:53:05;;;;;;;;;;;;;;;17.31;100.00;96008.09;1048707;28;19924;-73
2021/06/27 00:53:36;;;;;;;;;;;;;;;17.31;100.00;96012.72;1048702;28;20254;-73
2021/06/27 00:54:06;;;;;;;;;;;;;;;17.26;100.00;96008.25;1049017;28;19913;-73
2021/06/27 00:54:36;;;;;;;;;;;;;;;17.26;100.00;96008.25;1049043;28;19915;-73
2021/06/27 00:55:07;;;;;;;;;;;;;;;17.24;100.00;96017.75;1048993;28;20451;-73
2021/06/27 00:55:37;;;;;;;;;;;;;;;17.23;100.00;96014.25;1049028;28;19920;-72
2021/06/27 00:56:07;;;;;;;;;;;;;;;17.20;100.00;96016.75;1049056;28;19912;-72
2021/06/27 00:56:38;;;;;;;;;;;;;;;17.19;100.00;96017.88;1048974;28;20354;-72
2021/06/27 00:57:09;;;;;;;;;;;;;;;17.16;100.00;96022.00;1049119;28;19959;-72
2021/06/27 00:57:39;;;;;;;;;;;;;;;17.16;100.00;96016.63;1048786;28;19935;-72
2021/06/27 00:58:10;;;;;;;;;;;;;;;17.14;100.00;96014.19;1052898;28;20032;-73
2021/06/27 00:58:41;;;;;;;;;;;;;;;17.11;100.00;96019.44;1052940;28;19916;-74
2021/06/27 00:59:11;;;;;;;;;;;;;;;17.10;100.00;96015.16;1053062;28;19908;-73
2021/06/27 00:59:42;;;;;;;;;;;;;;;17.09;100.00;96016.25;1052787;28;19916;-73
2021/06/27 01:00:13;;;;;;;;;;;;;;;17.09;100.00;96025.13;1048822;28;19916;-73
2021/06/27 01:00:43;;;;;;;;;;;;;;;17.08;100.00;96020.84;1048803;28;19951;-73
2021/06/27 01:01:13;;;;;;;;;;;;;;;17.07;100.00;96016.56;1048821;28;19920;-73
2021/06/27 01:01:44;;;;;;;;;;;;;;;17.07;100.00;96021.16;1049103;28;20329;-73
2021/06/27 01:02:14;;;;;;;;;;;;;;;17.04;100.00;96019.88;1048679;28;19917;-73
2021/06/27 01:02:44;;;;;;;;;;;;;;;17.00;100.00;96018.91;1052950;28;19951;-73
2021/06/27 01:03:15;;;;;;;;;;;;;;;17.01;100.00;96020.50;1053005;28;20422;-72
2021/06/27 01:03:45;;;;;;;;;;;;;;;17.02;100.00;96011.31;1052898;28;20388;-73
2021/06/27 01:04:15;;;;;;;;;;;;;;;17.01;100.00;96020.50;1057027;28;19908;-72
2021/06/27 01:04:46;;;;;;;;;;;;;;;16.99;100.00;96017.31;1049096;28;19912;-73
2021/06/27 01:05:17;;;;;;;;;;;;;;;16.97;100.00;96014.13;1049056;28;20257;-72
2021/06/27 01:05:47;;;;;;;;;;;;;;;16.94;100.00;96014.78;1048951;28;19916;-73
2021/06/27 01:06:18;;;;;;;;;;;;;;;16.92;100.00;96008.06;1048995;28;19912;-73
2021/06/27 01:06:48;;;;;;;;;;;;;;;16.91;100.00;96007.28;1049139;28;19912;-73
2021/06/27 01:07:18;;;;;;;;;;;;;;;16.93;100.00;96013.16;1049099;28;20008;-73
2021/06/27 01:07:48;;;;;;;;;;;;;;;16.95;100.00;96015.56;1048979;28;19927;-72
2021/06/27 01:08:19;;;;;;;;;;;;;;;16.94;100.00;96008.53;1049092;28;19908;-72
2021/06/27 01:08:50;;;;;;;;;;;;;;;16.91;100.00;96015.38;1049117;28;20361;-72
2021/06/27 01:09:21;;;;;;;;;;;;;;;16.92;100.00;96008.88;1049166;28;19915;-72
2021/06/27 01:09:51;;;;;;;;;;;;;;;16.89;100.00;96013.00;1048942;28;19919;-72
2021/06/27 01:10:21;;;;;;;;;;;;;;;16.88;100.00;96013.28;1049000;28;19955;-72
2021/06/27 01:10:52;;;;;;;;;;;;;;;16.87;100.00;96012.50;1049121;28;19912;-73
2021/06/27 01:11:22;;;;;;;;;;;;;;;16.88;100.00;96013.28;1049104;28;20016;-72
2021/06/27 01:11:52;;;;;;;;;;;;;;;16.87;100.00;96003.59;1049005;28;19927;-73
2021/06/27 01:12:23;;;;;;;;;;;;;;;16.85;100.00;96014.72;1049053;28;19912;-72
2021/06/27 01:12:53;;;;;;;;;;;;;;;16.87;100.00;96015.19;1049084;28;19955;-72
2021/06/27 01:13:24;;;;;;;;;;;;;;;16.89;100.00;96014.91;1048951;28;19909;-73
2021/06/27 01:13:54;;;;;;;;;;;;;;;16.90;100.00;96019.19;1048999;28;19913;-72
2021/06/27 01:14:25;;;;;;;;;;;;;;;16.90;100.00;96013.78;1048944;28;20281;-73
2021/06/27 01:14:55;;;;;;;;;;;;;;;16.90;100.00;96011.09;1049059;28;19912;-72
2021/06/27 01:15:25;;;;;;;;;;;;;;;16.91;100.00;96015.38;1049061;28;19974;-73
2021/06/27 01:15:55;;;;;;;;;;;;;;;16.92;100.00;96018.88;1049002;28;19919;-73
2021/06/27 01:16:26;;;;;;;;;;;;;;;16.92;100.00;96014.25;1048758;28;19951;-73
2021/06/27 01:16:56;;;;;;;;;;;;;;;16.92;100.00;96019.66;1048792;28;19909;-72
2021/06/27 01:17:26;;;;;;;;;;;;;;;16.94;100.00;96013.94;1048757;28;19912;-72
2021/06/27 01:17:57;;;;;;;;;;;;;;;16.96;100.00;96012.53;1048676;28;19956;-73
2021/06/27 01:18:27;;;;;;;;;;;;;;;16.97;100.00;96022.22;1049065;28;19914;-73
2021/06/27 01:18:57;;;;;;;;;;;;;;;16.96;100.00;96015.25;1049028;28;19919;-72
2021/06/27 01:19:31;;;;;;;;;;;;;;;16.97;100.00;96014.13;1049013;28;19912;-73
2021/06/27 01:20:02;;;;;;;;;;;;;;;16.96;100.00;96015.25;1048613;28;20379;-72
2021/06/27 01:20:36;;;;;;;;;;;;;;;17.00;100.00;96010.03;1048765;28;19920;-72
2021/06/27 01:21:06;;;;;;;;;;;;;;;17.02;100.00;96014.00;1044647;28;19916;-72
2021/06/27 01:21:37;;;;;;;;;;;;;;;17.01;100.00;96009.72;1045150;28;20386;-73
2021/06/27 01:22:07;;;;;;;;;;;;;;;16.99;100.00;96011.91;1048717;28;20256;-73
2021/06/27 01:22:37;;;;;;;;;;;;;;;17.00;100.00;96001.94;1048715;28;20385;-72
2021/06/27 01:23:12;;;;;;;;;;;;;;;17.04;100.00;96009.06;1049011;28;19913;-72
2021/06/27 01:23:42;;;;;;;;;;;;;;;17.04;100.00;96009.06;1049029;28;20518;-73
2021/06/27 01:24:12;;;;;;;;;;;;;;;17.06;100.00;96008.78;1048959;28;19917;-72
2021/06/27 01:24:43;;;;;;;;;;;;;;;17.05;100.00;96008.00;1048967;28;19962;-72
2021/06/27 01:25:14;;;;;;;;;;;;;;;17.06;100.00;96017.69;1049023;28;19924;-72
2021/06/27 01:25:48;;;;;;;;;;;;;;;17.04;100.00;96006.38;1049000;28;19948;-72
2021/06/27 01:26:18;;;;;;;;;;;;;;;17.03;100.00;96009.38;1049006;28;20455;-72
2021/06/27 01:26:49;;;;;;;;;;;;;;;17.02;100.00;96015.91;1048974;28;19939;-72
2021/06/27 01:27:19;;;;;;;;;;;;;;;17.01;100.00;96007.00;1048894;28;19961;-72
2021/06/27 01:27:49;;;;;;;;;;;;;;;16.97;100.00;96011.44;1048978;28;19920;-72
2021/06/27 01:28:20;;;;;;;;;;;;;;;17.00;100.00;96013.53;1048975;28;19969;-72
2021/06/27 01:28:51;;;;;;;;;;;;;;;16.96;100.00;96009.06;1048962;28;20261;-72
2021/06/27 01:29:22;;;;;;;;;;;;;;;16.91;100.00;96014.59;1048935;28;19923;-72
2021/06/27 01:29:52;;;;;;;;;;;;;;;16.87;100.00;96009.78;1049019;28;19951;-72
2021/06/27 01:30:23;;;;;;;;;;;;;;;16.88;100.00;96005.19;1048959;28;20387;-72
2021/06/27 01:30:53;;;;;;;;;;;;;;;16.85;100.00;96006.63;1048941;28;20050;-72
2021/06/27 01:31:23;;;;;;;;;;;;;;;16.82;100.00;96006.44;1048989;28;19951;-72
2021/06/27 01:31:54;;;;;;;;;;;;;;;16.82;100.00;96007.22;1048745;28;19912;-72
2021/06/27 01:32:24;;;;;;;;;;;;;;;16.80;100.00;96008.66;1052871;28;19919;-72
2021/06/27 01:32:55;;;;;;;;;;;;;;;16.79;100.00;96005.16;1052814;28;19912;-73
2021/06/27 01:33:25;;;;;;;;;;;;;;;16.81;100.00;96007.53;1052769;28;19927;-72
2021/06/27 01:33:55;;;;;;;;;;;;;;;16.82;100.00;96012.63;1056760;28;20314;-72
2021/06/27 01:34:26;;;;;;;;;;;;;;;16.80;100.00;96009.44;1049014;28;20023;-72
2021/06/27 01:34:56;;;;;;;;;;;;;;;16.82;100.00;96006.44;1048921;28;19909;-72
2021/06/27 01:35:26;;;;;;;;;;;;;;;16.83;100.00;96011.50;1048958;28;19944;-72
2021/06/27 01:35:56;;;;;;;;;;;;;;;16.83;100.00;96008.81;1049026;28;19917;-73
2021/06/27 01:36:27;;;;;;;;;;;;;;;16.82;100.00;96009.13;1048606;28;19908;-73
2021/06/27 01:36:57;;;;;;;;;;;;;;;16.81;100.00;96013.72;1048538;28;19913;-72
2021/06/27 01:37:27;;;;;;;;;;;;;;;16.80;100.00;96012.13;1048671;28;19959;-72
2021/06/27 01:37:58;;;;;;;;;;;;;;;16.78;100.00;96010.84;1048636;28;20404;-72
2021/06/27 01:38:30;;;;;;;;;;;;;;;16.79;100.00;96005.16;1048676;28;20031;-72
2021/06/27 01:39:00;;;;;;;;;;;;;;;16.81;100.00;96005.63;1048842;28;19916;-72
2021/06/27 01:39:32;;;;;;;;;;;;;;;16.81;100.00;96002.94;1049013;28;19948;-72
2021/06/27 01:40:04;;;;;;;;;;;;;;;16.84;100.00;96004.22;1049012;28;19909;-72
2021/06/27 01:40:34;;;;;;;;;;;;;;;16.83;100.00;96003.41;1048978;28;19916;-72
2021/06/27 01:41:05;;;;;;;;;;;;;;;16.82;100.00;96009.13;1048914;28;20420;-72
2021/06/27 01:41:35;;;;;;;;;;;;;;;16.83;100.00;95998.00;1049016;28;19920;-72
2021/06/27 01:42:05;;;;;;;;;;;;;;;16.81;100.00;96004.84;1048985;28;19958;-72
2021/06/27 01:42:36;;;;;;;;;;;;;;;16.79;100.00;96002.47;1049017;28;20012;-73
2021/06/27 01:43:13;;;;;;;;;;;;;;;16.77;100.00;96015.44;1048553;28;20354;-72
2021/06/27 01:43:44;;;;;;;;;;;;;;;16.79;100.00;96007.06;1048728;28;19936;-72
2021/06/27 01:44:14;;;;;;;;;;;;;;;16.79;100.00;96010.56;1048666;28;20365;-72
2021/06/27 01:44:44;;;;;;;;;;;;;;;16.72;100.00;96004.78;1048731;28;20415;-72
2021/06/27 01:45:16;;;;;;;;;;;;;;;16.74;100.00;96005.28;1048894;28;19908;-72
2021/06/27 01:45:48;;;;;;;;;;;;;;;16.75;100.00;96006.88;1048597;28;19955;-72
2021/06/27 01:46:18;;;;;;;;;;;;;;;16.76;100.00;96011.16;1048703;28;19909;-72
2021/06/27 01:46:49;;;;;;;;;;;;;;;16.78;100.00;96006.25;1052794;28;20456;-72
2021/06/27 01:47:28;;;;;;;;;;;;;;;16.81;100.00;96008.34;1053108;28;19908;-72
2021/06/27 01:47:59;;;;;;;;;;;;;;;16.77;100.00;96001.94;1057134;28;20283;-72
2021/06/27 01:48:30;;;;;;;;;;;;;;;16.79;100.00;96004.38;1051518;28;19912;-72
2021/06/27 01:49:00;;;;;;;;;;;;;;;16.80;100.00;95997.84;1048772;28;19912;-72
2021/06/27 01:49:30;;;;;;;;;;;;;;;16.77;100.00;96003.84;1048440;28;19934;-72
2021/06/27 01:50:00;;;;;;;;;;;;;;;16.75;100.00;96004.19;1048719;28;19952;-72
2021/06/27 01:50:31;;;;;;;;;;;;;;;16.78;100.00;96002.75;1048677;28;19913;-72
2021/06/27 01:51:02;;;;;;;;;;;;;;;16.79;100.00;95999.75;1048711;28;20344;-73
2021/06/27 01:51:32;;;;;;;;;;;;;;;16.81;100.00;96002.13;1048867;28;19916;-73
2021/06/27 01:52:03;;;;;;;;;;;;;;;16.83;100.00;96000.72;1049032;28;19916;-72
2021/06/27 01:52:33;;;;;;;;;;;;;;;16.84;100.00;96005.03;1048978;28;20421;-72
2021/06/27 01:53:03;;;;;;;;;;;;;;;16.81;100.00;96002.13;1049009;28;19920;-72
2021/06/27 01:53:36;;;;;;;;;;;;;;;16.81;100.00;96010.25;1048808;28;20353;-73
2021/06/27 01:54:06;;;;;;;;;;;;;;;16.82;100.00;96014.53;1048978;28;20384;-72
2021/06/27 01:54:37;;;;;;;;;;;;;;;16.84;100.00;96012.34;1048940;28;19916;-73
2021/06/27 01:55:07;;;;;;;;;;;;;;;16.78;100.00;96008.94;1049031;28;19908;-72
2021/06/27 01:55:38;;;;;;;;;;;;;;;16.79;100.00;96005.16;1048854;28;20332;-72
2021/06/27 01:56:08;;;;;;;;;;;;;;;16.80;100.00;96009.44;1048925;28;19911;-72
2021/06/27 01:56:39;;;;;;;;;;;;;;;16.82;100.00;96009.13;1048969;28;19931;-72
2021/06/27 01:57:09;;;;;;;;;;;;;;;16.84;100.00;96015.03;1048869;28;20369;-72
2021/06/27 01:57:39;;;;;;;;;;;;;;;16.82;100.00;96009.91;1048844;28;20003;-72
2021/06/27 01:58:09;;;;;;;;;;;;;;;16.83;100.00;96010.72;1048954;28;19958;-72
2021/06/27 01:58:43;;;;;;;;;;;;;;;16.83;100.00;96013.41;1048930;28;20348;-72
2021/06/27 01:59:14;;;;;;;;;;;;;;;16.83;100.00;96008.00;1048953;28;19962;-72
2021/06/27 01:59:47;;;;;;;;;;;;;;;16.79;100.00;96013.25;1048817;28;19994;-72
2021/06/27 02:00:17;;;;;;;;;;;;;;;16.83;100.00;96014.22;1048907;28;19916;-72
2021/06/27 02:00:48;;;;;;;;;;;;;;;16.83;100.00;96013.41;1048501;28;19908;-72
2021/06/27 02:01:26;;;;;;;;;;;;;;;16.79;100.00;96007.84;1048649;28;20013;-72
2021/06/27 02:01:56;;;;;;;;;;;;;;;16.78;100.00;96013.53;1048579;28;19915;-72
2021/06/27 02:02:26;;;;;;;;;;;;;;;16.79;100.00;96012.47;1048596;28;19904;-72
2021/06/27 02:02:57;;;;;;;;;;;;;;;16.78;100.00;96008.94;1048918;28;19915;-73
2021/06/27 02:03:27;;;;;;;;;;;;;;;16.80;100.00;96008.66;1048985;28;19911;-73
2021/06/27 02:03:57;;;;;;;;;;;;;;;16.83;100.00;96013.41;1048820;28;20407;-72
2021/06/27 02:04:27;;;;;;;;;;;;;;;16.84;100.00;96004.22;1048993;28;19905;-72
2021/06/27 02:04:58;;;;;;;;;;;;;;;16.81;100.00;96019.13;1049800;28;19952;-72
2021/06/27 02:05:29;;;;;;;;;;;;;;;16.79;100.00;96018.66;1049787;28;19908;-72
2021/06/27 02:05:59;;;;;;;;;;;;;;;16.81;100.00;96010.25;1049769;28;19908;-72
2021/06/27 02:06:29;;;;;;;;;;;;;;;16.80;100.00;96011.34;1049773;28;19936;-72
2021/06/27 02:07:00;;;;;;;;;;;;;;;16.77;100.00;96015.44;1049830;28;19913;-72
2021/06/27 02:07:30;;;;;;;;;;;;;;;16.76;100.00;96010.38;1049824;28;20343;-73
2021/06/27 02:08:00;;;;;;;;;;;;;;;16.77;100.00;96018.16;1049750;28;20319;-72
2021/06/27 02:08:31;;;;;;;;;;;;;;;16.76;100.00;96013.06;1049771;28;19959;-73
2021/06/27 02:09:03;;;;;;;;;;;;;;;16.78;100.00;96018.94;1049772;28;20389;-72
2021/06/27 02:09:34;;;;;;;;;;;;;;;16.76;100.00;96013.84;1049754;28;20281;-72
2021/06/27 02:10:05;;;;;;;;;;;;;;;16.77;100.00;96014.66;1049680;28;19908;-72
2021/06/27 02:10:36;;;;;;;;;;;;;;;16.76;100.00;96016.56;1049805;28;19909;-72
2021/06/27 02:11:07;;;;;;;;;;;;;;;16.77;100.00;96012.75;1049749;28;19951;-73
2021/06/27 02:11:37;;;;;;;;;;;;;;;16.78;100.00;96021.63;1049755;28;20385;-73
2021/06/27 02:12:09;;;;;;;;;;;;;;;16.79;100.00;96010.56;1049628;28;19923;-73
2021/06/27 02:12:39;;;;;;;;;;;;;;;16.79;100.00;96012.47;1049719;28;19916;-73
2021/06/27 02:13:09;;;;;;;;;;;;;;;16.83;100.00;96018.81;1049752;28;19909;-72
2021/06/27 02:13:40;;;;;;;;;;;;;;;16.82;100.00;96014.53;1049682;28;19920;-73
2021/06/27 02:14:10;;;;;;;;;;;;;;;16.81;100.00;96018.34;1049695;28;19904;-73
2021/06/27 02:14:40;;;;;;;;;;;;;;;16.82;100.00;96018.00;1049320;28;19966;-73
2021/06/27 02:15:11;;;;;;;;;;;;;;;16.81;100.00;96016.44;1049490;28;19947;-73
2021/06/27 02:15:41;;;;;;;;;;;;;;;16.81;100.00;96016.44;1049416;28;19916;-72
2021/06/27 02:16:12;;;;;;;;;;;;;;;16.80;100.00;96020.25;1049490;28;19905;-72
2021/06/27 02:16:42;;;;;;;;;;;;;;;16.82;100.00;96025.31;1049273;28;19920;-72
2021/06/27 02:17:12;;;;;;;;;;;;;;;16.81;100.00;96023.72;1049480;28;19904;-73
2021/06/27 02:17:49;;;;;;;;;;;;;;;16.78;100.00;96022.44;1049443;28;19921;-72
2021/06/27 02:18:27;;;;;;;;;;;;;;;16.76;100.00;96018.47;1049474;28;20304;-72
2021/06/27 02:18:57;;;;;;;;;;;;;;;16.75;100.00;96024.97;1049724;28;19916;-73
2021/06/27 02:19:27;;;;;;;;;;;;;;;16.74;100.00;96026.09;1049692;28;19900;-73
2021/06/27 02:19:58;;;;;;;;;;;;;;;16.72;100.00;96022.88;1049711;28;19905;-72
2021/06/27 02:20:28;;;;;;;;;;;;;;;16.70;100.00;96025.06;1049625;28;19950;-72
2021/06/27 02:21:02;;;;;;;;;;;;;;;16.69;100.00;96028.88;1049385;28;19904;-72
2021/06/27 02:21:35;;;;;;;;;;;;;;;16.65;100.00;96028.69;1049432;28;19904;-72
2021/06/27 02:22:06;;;;;;;;;;;;;;;16.63;100.00;96023.59;1049388;28;19927;-73
2021/06/27 02:22:36;;;;;;;;;;;;;;;16.62;100.00;96031.97;1049424;28;19954;-72
2021/06/27 02:23:06;;;;;;;;;;;;;;;16.58;100.00;96031.00;1049716;28;20336;-72
2021/06/27 02:23:37;;;;;;;;;;;;;;;16.56;100.00;96025.91;1049756;28;19952;-72
2021/06/27 02:24:07;;;;;;;;;;;;;;;16.51;100.00;96026.03;1049683;28;19904;-72
2021/06/27 02:24:37;;;;;;;;;;;;;;;16.45;100.00;96032.66;1049663;28;19904;-73
2021/06/27 02:25:08;;;;;;;;;;;;;;;16.45;100.00;96032.66;1049697;28;19907;-72
2021/06/27 02:25:38;;;;;;;;;;;;;;;16.44;100.00;96032.97;1049704;28;20362;-72
2021/06/27 02:26:09;;;;;;;;;;;;;;;16.44;100.00;96032.97;1049740;28;19935;-72
2021/06/27 02:26:40;;;;;;;;;;;;;;;16.40;100.00;96027.41;1049700;28;19974;-72
2021/06/27 02:27:10;;;;;;;;;;;;;;;16.38;100.00;96037.69;1049631;28;20346;-72
2021/06/27 02:27:40;;;;;;;;;;;;;;;16.36;100.00;96031.78;1049701;28;19912;-72
2021/06/27 02:28:10;;;;;;;;;;;;;;;16.34;100.00;96034.00;1049719;28;19966;-72
2021/06/27 02:28:41;;;;;;;;;;;;;;;16.33;100.00;96027.81;1049656;28;20328;-73
2021/06/27 02:29:11;;;;;;;;;;;;;;;16.35;100.00;96033.69;1049684;28;19911;-72
2021/06/27 02:29:41;;;;;;;;;;;;;;;16.31;100.00;96034.63;1049535;28;19905;-72
2021/06/27 02:30:12;;;;;;;;;;;;;;;16.26;100.00;96032.03;1049434;28;19943;-72
2021/06/27 02:30:42;;;;;;;;;;;;;;;16.30;100.00;96031.13;1049398;28;19912;-73
2021/06/27 02:31:13;;;;;;;;;;;;;;;16.32;100.00;96028.13;1049395;28;19909;-72
2021/06/27 02:31:49;;;;;;;;;;;;;;;16.31;100.00;96027.31;1053578;28;19900;-72
2021/06/27 02:32:19;;;;;;;;;;;;;;;16.28;100.00;96033.34;1057819;28;20250;-73
2021/06/27 02:32:50;;;;;;;;;;;;;;;16.29;100.00;96026.03;1057821;28;19961;-73
2021/06/27 02:33:20;;;;;;;;;;;;;;;16.24;100.00;96026.94;1055922;28;19920;-73
2021/06/27 02:33:50;;;;;;;;;;;;;;;16.23;100.00;96028.06;1049738;28;19920;-72
2021/06/27 02:34:21;;;;;;;;;;;;;;;16.24;100.00;96026.94;1049719;28;19905;-72
2021/06/27 02:34:51;;;;;;;;;;;;;;;16.25;100.00;96030.44;1049317;28;19916;-72
2021/06/27 02:35:23;;;;;;;;;;;;;;;16.25;100.00;96027.75;1048550;28;20135;-72
2021/06/27 02:35:54;;;;;;;;;;;;;;;16.28;100.00;96024.44;1049383;28;19925;-72
2021/06/27 02:36:24;;;;;;;;;;;;;;;16.27;100.00;96025.53;1049416;28;19917;-73
2021/06/27 02:36:55;;;;;;;;;;;;;;;16.25;100.00;96028.53;1049683;28;19952;-72
2021/06/27 02:37:25;;;;;;;;;;;;;;;16.24;100.00;96026.16;1049620;28;20384;-72
2021/06/27 02:37:55;;;;;;;;;;;;;;;16.23;100.00;96025.38;1049692;28;20266;-72